sensor_id;sensor_type;location;lat;lon;timestamp;temperature;humidity
12520;DHT22;6325;49.540;8.364;2022-12-10T00:01:26;3.00;99.90
12520;DHT22;6325;49.540;8.364;2022-12-10T00:03:54;2.80;99.90
12520;DHT22;6325;49.540;8.364;2022-12-10T00:06:23;3.50;99.90
12520;DHT22;6325;49.540;8.364;2022-12-10T00:08:51;3.20;99.90
12520;DHT22;6325;49.540;8.364;2022-12-10T00:11:19;3.50;99.90
12520;DHT22;6325;49.540;8.364;2022-12-10T00:13:47;2.90;99.90
12520;DHT22;6325;49.540;8.364;2022-12-10T00:16:18;3.10;99.90
12520;DHT22;6325;49.540;8.364;2022-12-10T00:18:46;2.80;99.90
12520;DHT22;6325;49.540;8.364;2022-12-10T00:21:19;3.10;99.90
12520;DHT22;6325;49.540;8.364;2022-12-10T00:23:46;3.10;99.90
12520;DHT22;6325;49.540;8.364;2022-12-10T00:26:15;2.80;99.90
12520;DHT22;6325;49.540;8.364;2022-12-10T00:28:43;2.20;99.90
12520;DHT22;6325;49.540;8.364;2022-12-10T00:31:11;2.90;99.90
12520;DHT22;6325;49.540;8.364;2022-12-10T00:33:41;3.80;99.90
12520;DHT22;6325;49.540;8.364;2022-12-10T00:36:11;3.00;99.90
12520;DHT22;6325;49.540;8.364;2022-12-10T00:38:39;2.90;99.90
12520;DHT22;6325;49.540;8.364;2022-12-10T00:41:06;3.10;99.90
12520;DHT22;6325;49.540;8.364;2022-12-10T00:43:34;2.90;99.90
12520;DHT22;6325;49.540;8.364;2022-12-10T00:46:02;3.00;99.90
12520;DHT22;6325;49.540;8.364;2022-12-10T00:48:29;2.90;99.90
12520;DHT22;6325;49.540;8.364;2022-12-10T00:51:00;2.90;99.90
12520;DHT22;6325;49.540;8.364;2022-12-10T00:53:28;3.30;99.90
12520;DHT22;6325;49.540;8.364;2022-12-10T00:55:56;3.60;99.90
12520;DHT22;6325;49.540;8.364;2022-12-10T00:58:26;2.50;99.90
12520;DHT22;6325;49.540;8.364;2022-12-10T01:01:01;3.30;99.90
12520;DHT22;6325;49.540;8.364;2022-12-10T01:03:32;2.80;99.90
12520;DHT22;6325;49.540;8.364;2022-12-10T01:06:09;3.60;99.90
12520;DHT22;6325;49.540;8.364;2022-12-10T01:08:36;2.80;99.90
12520;DHT22;6325;49.540;8.364;2022-12-10T01:11:04;3.00;99.90
12520;DHT22;6325;49.540;8.364;2022-12-10T01:13:31;2.80;99.90
12520;DHT22;6325;49.540;8.364;2022-12-10T01:16:00;2.90;99.90
12520;DHT22;6325;49.540;8.364;2022-12-10T01:18:27;3.30;99.90
12520;DHT22;6325;49.540;8.364;2022-12-10T01:20:54;2.70;99.90
12520;DHT22;6325;49.540;8.364;2022-12-10T01:23:24;2.70;99.90
12520;DHT22;6325;49.540;8.364;2022-12-10T01:25:50;3.20;99.90
12520;DHT22;6325;49.540;8.364;2022-12-10T01:28:17;2.70;99.90
12520;DHT22;6325;49.540;8.364;2022-12-10T01:30:46;2.70;99.90
12520;DHT22;6325;49.540;8.364;2022-12-10T01:33:14;2.60;99.90
12520;DHT22;6325;49.540;8.364;2022-12-10T01:35:41;3.10;99.90
12520;DHT22;6325;49.540;8.364;2022-12-10T01:38:07;3.10;99.90
12520;DHT22;6325;49.540;8.364;2022-12-10T01:40:38;3.30;99.90
12520;DHT22;6325;49.540;8.364;2022-12-10T01:43:05;3.20;99.90
12520;DHT22;6325;49.540;8.364;2022-12-10T01:45:32;2.20;99.90
12520;DHT22;6325;49.540;8.364;2022-12-10T01:48:00;3.30;99.90
12520;DHT22;6325;49.540;8.364;2022-12-10T01:50:27;3.10;99.90
12520;DHT22;6325;49.540;8.364;2022-12-10T01:52:54;2.80;99.90
12520;DHT22;6325;49.540;8.364;2022-12-10T01:55:45;2.80;99.90
12520;DHT22;6325;49.540;8.364;2022-12-10T01:58:13;3.10;99.90
12520;DHT22;6325;49.540;8.364;2022-12-10T02:03:37;2.60;99.90
12520;DHT22;6325;49.540;8.364;2022-12-10T02:06:15;3.10;99.90
12520;DHT22;6325;49.540;8.364;2022-12-10T02:08:49;3.10;99.90
12520;DHT22;6325;49.540;8.364;2022-12-10T02:11:22;2.30;99.90
12520;DHT22;6325;49.540;8.364;2022-12-10T02:13:57;2.80;99.90
12520;DHT22;6325;49.540;8.364;2022-12-10T02:16:31;3.00;99.90
12520;DHT22;6325;49.540;8.364;2022-12-10T02:19:09;3.10;99.90
12520;DHT22;6325;49.540;8.364;2022-12-10T02:21:41;3.00;99.90
12520;DHT22;6325;49.540;8.364;2022-12-10T02:24:13;2.70;99.90
12520;DHT22;6325;49.540;8.364;2022-12-10T02:26:45;2.90;99.90
12520;DHT22;6325;49.540;8.364;2022-12-10T02:29:19;2.70;99.90
12520;DHT22;6325;49.540;8.364;2022-12-10T02:31:51;2.40;99.90
12520;DHT22;6325;49.540;8.364;2022-12-10T02:34:20;2.50;99.90
12520;DHT22;6325;49.540;8.364;2022-12-10T02:36:51;2.90;99.90
12520;DHT22;6325;49.540;8.364;2022-12-10T02:39:22;2.90;99.90
12520;DHT22;6325;49.540;8.364;2022-12-10T02:41:53;2.50;99.90
12520;DHT22;6325;49.540;8.364;2022-12-10T02:44:23;2.70;99.90
12520;DHT22;6325;49.540;8.364;2022-12-10T02:46:54;2.90;99.90
12520;DHT22;6325;49.540;8.364;2022-12-10T02:49:23;2.60;99.90
12520;DHT22;6325;49.540;8.364;2022-12-10T02:51:52;2.70;99.90
12520;DHT22;6325;49.540;8.364;2022-12-10T02:54:37;2.60;99.90
12520;DHT22;6325;49.540;8.364;2022-12-10T03:00:03;2.70;99.90
12520;DHT22;6325;49.540;8.364;2022-12-10T03:02:38;2.40;99.90
12520;DHT22;6325;49.540;8.364;2022-12-10T03:05:13;2.50;99.90
12520;DHT22;6325;49.540;8.364;2022-12-10T03:07:46;2.90;99.90
12520;DHT22;6325;49.540;8.364;2022-12-10T03:10:20;2.50;99.90
12520;DHT22;6325;49.540;8.364;2022-12-10T03:12:51;2.10;99.90
12520;DHT22;6325;49.540;8.364;2022-12-10T03:15:23;2.10;99.90
12520;DHT22;6325;49.540;8.364;2022-12-10T03:17:50;3.00;99.90
12520;DHT22;6325;49.540;8.364;2022-12-10T03:20:18;2.50;99.90
12520;DHT22;6325;49.540;8.364;2022-12-10T03:22:47;3.00;99.90
12520;DHT22;6325;49.540;8.364;2022-12-10T03:25:18;2.10;99.90
12520;DHT22;6325;49.540;8.364;2022-12-10T03:27:48;2.60;99.90
12520;DHT22;6325;49.540;8.364;2022-12-10T03:30:16;2.70;99.90
12520;DHT22;6325;49.540;8.364;2022-12-10T03:32:45;2.50;99.90
12520;DHT22;6325;49.540;8.364;2022-12-10T03:35:13;2.20;99.90
12520;DHT22;6325;49.540;8.364;2022-12-10T03:37:41;2.60;99.90
12520;DHT22;6325;49.540;8.364;2022-12-10T03:40:09;1.90;99.90
12520;DHT22;6325;49.540;8.364;2022-12-10T03:42:37;2.40;99.90
12520;DHT22;6325;49.540;8.364;2022-12-10T03:45:07;2.80;99.90
12520;DHT22;6325;49.540;8.364;2022-12-10T03:47:34;2.30;99.90
12520;DHT22;6325;49.540;8.364;2022-12-10T03:50:02;2.50;99.90
12520;DHT22;6325;49.540;8.364;2022-12-10T03:52:29;1.90;99.90
12520;DHT22;6325;49.540;8.364;2022-12-10T03:54:56;2.10;99.90
12520;DHT22;6325;49.540;8.364;2022-12-10T03:57:23;2.80;99.90
12520;DHT22;6325;49.540;8.364;2022-12-10T03:59:50;1.80;99.90
12520;DHT22;6325;49.540;8.364;2022-12-10T04:02:17;2.40;99.90
12520;DHT22;6325;49.540;8.364;2022-12-10T04:04:44;2.50;99.90
12520;DHT22;6325;49.540;8.364;2022-12-10T04:07:12;2.50;99.90
12520;DHT22;6325;49.540;8.364;2022-12-10T04:09:39;2.00;99.90
12520;DHT22;6325;49.540;8.364;2022-12-10T04:12:07;2.30;99.90
12520;DHT22;6325;49.540;8.364;2022-12-10T04:14:35;2.30;99.90
12520;DHT22;6325;49.540;8.364;2022-12-10T04:17:19;2.60;99.90
12520;DHT22;6325;49.540;8.364;2022-12-10T04:19:46;2.80;99.90
12520;DHT22;6325;49.540;8.364;2022-12-10T04:22:14;2.50;99.90
12520;DHT22;6325;49.540;8.364;2022-12-10T04:24:59;2.40;99.90
12520;DHT22;6325;49.540;8.364;2022-12-10T04:27:43;2.30;99.90
12520;DHT22;6325;49.540;8.364;2022-12-10T04:30:11;2.60;99.90
12520;DHT22;6325;49.540;8.364;2022-12-10T04:32:38;2.20;99.90
12520;DHT22;6325;49.540;8.364;2022-12-10T04:35:06;2.20;99.90
12520;DHT22;6325;49.540;8.364;2022-12-10T04:37:35;1.50;99.90
12520;DHT22;6325;49.540;8.364;2022-12-10T04:40:03;2.20;99.90
12520;DHT22;6325;49.540;8.364;2022-12-10T04:42:30;2.70;99.90
12520;DHT22;6325;49.540;8.364;2022-12-10T04:45:00;2.50;99.90
12520;DHT22;6325;49.540;8.364;2022-12-10T04:47:27;1.90;99.90
12520;DHT22;6325;49.540;8.364;2022-12-10T04:49:54;2.30;99.90
12520;DHT22;6325;49.540;8.364;2022-12-10T04:52:20;2.40;99.90
12520;DHT22;6325;49.540;8.364;2022-12-10T04:54:49;1.60;99.90
12520;DHT22;6325;49.540;8.364;2022-12-10T04:57:15;2.20;99.90
12520;DHT22;6325;49.540;8.364;2022-12-10T04:59:42;2.40;99.90
12520;DHT22;6325;49.540;8.364;2022-12-10T05:02:09;2.10;99.90
12520;DHT22;6325;49.540;8.364;2022-12-10T05:04:36;2.10;99.90
12520;DHT22;6325;49.540;8.364;2022-12-10T05:07:03;2.40;99.90
12520;DHT22;6325;49.540;8.364;2022-12-10T05:09:31;1.60;99.90
12520;DHT22;6325;49.540;8.364;2022-12-10T05:11:59;2.70;99.90
12520;DHT22;6325;49.540;8.364;2022-12-10T05:14:26;2.20;99.90
12520;DHT22;6325;49.540;8.364;2022-12-10T05:16:53;2.70;99.90
12520;DHT22;6325;49.540;8.364;2022-12-10T05:19:20;2.40;99.90
12520;DHT22;6325;49.540;8.364;2022-12-10T05:21:48;2.40;99.90
12520;DHT22;6325;49.540;8.364;2022-12-10T05:24:32;2.60;99.90
12520;DHT22;6325;49.540;8.364;2022-12-10T05:27:01;2.30;99.90
12520;DHT22;6325;49.540;8.364;2022-12-10T05:29:28;2.30;99.90
12520;DHT22;6325;49.540;8.364;2022-12-10T05:31:55;2.60;99.90
12520;DHT22;6325;49.540;8.364;2022-12-10T05:34:22;2.60;99.90
12520;DHT22;6325;49.540;8.364;2022-12-10T05:36:49;2.20;99.90
12520;DHT22;6325;49.540;8.364;2022-12-10T05:39:16;1.90;99.90
12520;DHT22;6325;49.540;8.364;2022-12-10T05:41:43;2.20;99.90
12520;DHT22;6325;49.540;8.364;2022-12-10T05:44:12;2.30;99.90
12520;DHT22;6325;49.540;8.364;2022-12-10T05:46:39;2.70;99.90
12520;DHT22;6325;49.540;8.364;2022-12-10T05:49:06;2.60;99.90
12520;DHT22;6325;49.540;8.364;2022-12-10T05:51:35;2.20;99.90
12520;DHT22;6325;49.540;8.364;2022-12-10T05:54:05;2.00;99.90
12520;DHT22;6325;49.540;8.364;2022-12-10T05:56:35;2.50;99.90
12520;DHT22;6325;49.540;8.364;2022-12-10T05:59:03;2.30;99.90
12520;DHT22;6325;49.540;8.364;2022-12-10T06:01:34;2.20;99.90
12520;DHT22;6325;49.540;8.364;2022-12-10T06:04:03;2.30;99.90
12520;DHT22;6325;49.540;8.364;2022-12-10T06:06:32;1.90;99.90
12520;DHT22;6325;49.540;8.364;2022-12-10T06:09:00;2.20;99.90
12520;DHT22;6325;49.540;8.364;2022-12-10T06:11:27;2.70;99.90
12520;DHT22;6325;49.540;8.364;2022-12-10T06:13:56;2.20;99.90
12520;DHT22;6325;49.540;8.364;2022-12-10T06:16:24;2.30;99.90
12520;DHT22;6325;49.540;8.364;2022-12-10T06:18:53;1.60;99.90
12520;DHT22;6325;49.540;8.364;2022-12-10T06:21:20;2.10;99.90
12520;DHT22;6325;49.540;8.364;2022-12-10T06:23:51;2.80;99.90
12520;DHT22;6325;49.540;8.364;2022-12-10T06:26:20;2.30;99.90
12520;DHT22;6325;49.540;8.364;2022-12-10T06:28:48;2.50;99.90
12520;DHT22;6325;49.540;8.364;2022-12-10T06:31:16;2.20;99.90
12520;DHT22;6325;49.540;8.364;2022-12-10T06:33:43;2.50;99.90
12520;DHT22;6325;49.540;8.364;2022-12-10T06:36:13;2.60;99.90
12520;DHT22;6325;49.540;8.364;2022-12-10T06:38:40;2.10;99.90
12520;DHT22;6325;49.540;8.364;2022-12-10T06:41:09;1.90;99.90
12520;DHT22;6325;49.540;8.364;2022-12-10T06:43:36;2.60;99.90
12520;DHT22;6325;49.540;8.364;2022-12-10T06:46:04;2.40;99.90
12520;DHT22;6325;49.540;8.364;2022-12-10T06:48:32;2.70;99.90
12520;DHT22;6325;49.540;8.364;2022-12-10T06:50:59;2.60;99.90
12520;DHT22;6325;49.540;8.364;2022-12-10T06:53:27;2.30;99.90
12520;DHT22;6325;49.540;8.364;2022-12-10T06:55:56;2.60;99.90
12520;DHT22;6325;49.540;8.364;2022-12-10T06:58:23;2.40;99.90
12520;DHT22;6325;49.540;8.364;2022-12-10T07:00:50;2.00;99.90
12520;DHT22;6325;49.540;8.364;2022-12-10T07:03:17;1.80;99.90
12520;DHT22;6325;49.540;8.364;2022-12-10T07:05:44;1.80;99.90
12520;DHT22;6325;49.540;8.364;2022-12-10T07:08:11;2.10;99.90
12520;DHT22;6325;49.540;8.364;2022-12-10T07:10:39;2.10;99.90
12520;DHT22;6325;49.540;8.364;2022-12-10T07:13:06;1.70;99.90
12520;DHT22;6325;49.540;8.364;2022-12-10T07:15:33;2.40;99.90
12520;DHT22;6325;49.540;8.364;2022-12-10T07:18:00;1.70;99.90
12520;DHT22;6325;49.540;8.364;2022-12-10T07:20:29;2.30;99.90
12520;DHT22;6325;49.540;8.364;2022-12-10T07:22:56;2.40;99.90
12520;DHT22;6325;49.540;8.364;2022-12-10T07:25:23;2.30;99.90
12520;DHT22;6325;49.540;8.364;2022-12-10T07:27:52;1.50;99.90
12520;DHT22;6325;49.540;8.364;2022-12-10T07:30:19;2.00;99.90
12520;DHT22;6325;49.540;8.364;2022-12-10T07:32:46;2.20;99.90
12520;DHT22;6325;49.540;8.364;2022-12-10T07:35:13;1.40;99.90
12520;DHT22;6325;49.540;8.364;2022-12-10T07:37:40;2.10;99.90
12520;DHT22;6325;49.540;8.364;2022-12-10T07:40:08;2.00;99.90
12520;DHT22;6325;49.540;8.364;2022-12-10T07:42:35;2.30;99.90
12520;DHT22;6325;49.540;8.364;2022-12-10T07:45:04;1.80;99.90
12520;DHT22;6325;49.540;8.364;2022-12-10T07:47:34;2.40;99.90
12520;DHT22;6325;49.540;8.364;2022-12-10T07:50:02;1.80;99.90
12520;DHT22;6325;49.540;8.364;2022-12-10T07:52:29;2.40;99.90
12520;DHT22;6325;49.540;8.364;2022-12-10T07:54:56;1.80;99.90
12520;DHT22;6325;49.540;8.364;2022-12-10T07:57:23;1.90;99.90
12520;DHT22;6325;49.540;8.364;2022-12-10T07:59:50;2.10;99.90
12520;DHT22;6325;49.540;8.364;2022-12-10T08:02:18;2.10;99.90
12520;DHT22;6325;49.540;8.364;2022-12-10T08:04:45;2.50;99.90
12520;DHT22;6325;49.540;8.364;2022-12-10T08:07:11;2.00;99.90
12520;DHT22;6325;49.540;8.364;2022-12-10T08:09:39;1.80;99.90
12520;DHT22;6325;49.540;8.364;2022-12-10T08:12:05;2.20;99.90
12520;DHT22;6325;49.540;8.364;2022-12-10T08:14:32;2.30;99.90
12520;DHT22;6325;49.540;8.364;2022-12-10T08:16:59;1.90;99.90
12520;DHT22;6325;49.540;8.364;2022-12-10T08:19:27;2.60;99.90
12520;DHT22;6325;49.540;8.364;2022-12-10T08:21:54;2.50;99.90
12520;DHT22;6325;49.540;8.364;2022-12-10T08:24:21;1.90;99.90
12520;DHT22;6325;49.540;8.364;2022-12-10T08:26:48;2.20;99.90
12520;DHT22;6325;49.540;8.364;2022-12-10T08:29:15;2.50;99.90
12520;DHT22;6325;49.540;8.364;2022-12-10T08:31:42;2.30;99.90
12520;DHT22;6325;49.540;8.364;2022-12-10T08:34:12;1.70;99.90
12520;DHT22;6325;49.540;8.364;2022-12-10T08:36:41;2.70;99.90
12520;DHT22;6325;49.540;8.364;2022-12-10T08:39:08;2.30;99.90
12520;DHT22;6325;49.540;8.364;2022-12-10T08:41:40;2.50;99.90
12520;DHT22;6325;49.540;8.364;2022-12-10T08:44:07;2.40;99.90
12520;DHT22;6325;49.540;8.364;2022-12-10T08:46:34;2.60;99.90
12520;DHT22;6325;49.540;8.364;2022-12-10T08:49:01;2.70;99.90
12520;DHT22;6325;49.540;8.364;2022-12-10T08:51:29;2.00;99.90
12520;DHT22;6325;49.540;8.364;2022-12-10T08:53:57;2.80;99.90
12520;DHT22;6325;49.540;8.364;2022-12-10T08:56:25;2.90;99.90
12520;DHT22;6325;49.540;8.364;2022-12-10T08:58:52;2.40;99.90
12520;DHT22;6325;49.540;8.364;2022-12-10T09:01:19;2.20;99.90
12520;DHT22;6325;49.540;8.364;2022-12-10T09:03:46;2.00;99.90
12520;DHT22;6325;49.540;8.364;2022-12-10T09:06:15;2.80;99.90
12520;DHT22;6325;49.540;8.364;2022-12-10T09:08:42;2.40;99.90
12520;DHT22;6325;49.540;8.364;2022-12-10T09:11:12;2.40;99.90
12520;DHT22;6325;49.540;8.364;2022-12-10T09:13:39;2.60;99.90
12520;DHT22;6325;49.540;8.364;2022-12-10T09:16:06;2.70;99.90
12520;DHT22;6325;49.540;8.364;2022-12-10T09:18:34;2.50;99.90
12520;DHT22;6325;49.540;8.364;2022-12-10T09:21:04;2.50;99.90
12520;DHT22;6325;49.540;8.364;2022-12-10T09:23:32;2.30;99.90
12520;DHT22;6325;49.540;8.364;2022-12-10T09:25:58;2.10;99.90
12520;DHT22;6325;49.540;8.364;2022-12-10T09:28:27;2.60;99.90
12520;DHT22;6325;49.540;8.364;2022-12-10T09:30:56;2.40;99.90
12520;DHT22;6325;49.540;8.364;2022-12-10T09:33:24;2.70;99.90
12520;DHT22;6325;49.540;8.364;2022-12-10T09:35:51;3.00;99.90
12520;DHT22;6325;49.540;8.364;2022-12-10T09:38:18;2.70;99.90
12520;DHT22;6325;49.540;8.364;2022-12-10T09:40:48;2.50;99.90
12520;DHT22;6325;49.540;8.364;2022-12-10T09:43:21;2.70;99.90
12520;DHT22;6325;49.540;8.364;2022-12-10T09:46:01;2.70;99.90
12520;DHT22;6325;49.540;8.364;2022-12-10T09:48:37;3.50;99.90
12520;DHT22;6325;49.540;8.364;2022-12-10T09:51:10;2.90;99.90
12520;DHT22;6325;49.540;8.364;2022-12-10T09:53:39;2.80;99.90
12520;DHT22;6325;49.540;8.364;2022-12-10T09:56:16;2.90;99.90
12520;DHT22;6325;49.540;8.364;2022-12-10T09:58:45;2.50;99.90
12520;DHT22;6325;49.540;8.364;2022-12-10T10:01:15;2.80;99.90
12520;DHT22;6325;49.540;8.364;2022-12-10T10:03:43;3.30;99.90
12520;DHT22;6325;49.540;8.364;2022-12-10T10:06:12;3.10;99.90
12520;DHT22;6325;49.540;8.364;2022-12-10T10:08:42;3.10;99.90
12520;DHT22;6325;49.540;8.364;2022-12-10T10:11:11;2.90;99.90
12520;DHT22;6325;49.540;8.364;2022-12-10T10:13:42;2.90;99.90
12520;DHT22;6325;49.540;8.364;2022-12-10T10:16:22;2.80;99.90
12520;DHT22;6325;49.540;8.364;2022-12-10T10:18:55;2.90;99.90
12520;DHT22;6325;49.540;8.364;2022-12-10T10:21:24;3.10;99.90
12520;DHT22;6325;49.540;8.364;2022-12-10T10:23:52;3.50;99.90
12520;DHT22;6325;49.540;8.364;2022-12-10T10:26:20;3.90;99.90
12520;DHT22;6325;49.540;8.364;2022-12-10T10:28:49;3.80;99.90
12520;DHT22;6325;49.540;8.364;2022-12-10T10:31:22;2.90;99.90
12520;DHT22;6325;49.540;8.364;2022-12-10T10:33:52;3.20;99.90
12520;DHT22;6325;49.540;8.364;2022-12-10T10:36:27;3.20;99.90
12520;DHT22;6325;49.540;8.364;2022-12-10T10:38:55;3.60;99.90
12520;DHT22;6325;49.540;8.364;2022-12-10T10:41:23;3.10;99.90
12520;DHT22;6325;49.540;8.364;2022-12-10T10:43:58;3.30;99.90
12520;DHT22;6325;49.540;8.364;2022-12-10T10:46:27;3.80;99.90
12520;DHT22;6325;49.540;8.364;2022-12-10T10:49:13;4.00;99.90
12520;DHT22;6325;49.540;8.364;2022-12-10T10:51:42;4.20;99.90
12520;DHT22;6325;49.540;8.364;2022-12-10T10:54:11;3.90;99.90
12520;DHT22;6325;49.540;8.364;2022-12-10T10:56:42;4.00;99.90
12520;DHT22;6325;49.540;8.364;2022-12-10T10:59:28;3.50;99.90
12520;DHT22;6325;49.540;8.364;2022-12-10T11:02:04;4.10;99.90
12520;DHT22;6325;49.540;8.364;2022-12-10T11:04:37;4.00;99.90
12520;DHT22;6325;49.540;8.364;2022-12-10T11:07:15;3.90;99.90
12520;DHT22;6325;49.540;8.364;2022-12-10T11:09:44;4.10;99.90
12520;DHT22;6325;49.540;8.364;2022-12-10T11:12:29;3.90;99.90
12520;DHT22;6325;49.540;8.364;2022-12-10T11:14:56;3.40;99.90
12520;DHT22;6325;49.540;8.364;2022-12-10T11:17:26;3.60;99.90
12520;DHT22;6325;49.540;8.364;2022-12-10T11:19:56;3.30;99.90
12520;DHT22;6325;49.540;8.364;2022-12-10T11:22:24;3.80;99.90
12520;DHT22;6325;49.540;8.364;2022-12-10T11:24:52;3.40;99.90
12520;DHT22;6325;49.540;8.364;2022-12-10T11:27:29;3.50;99.90
12520;DHT22;6325;49.540;8.364;2022-12-10T11:30:03;4.20;99.90
12520;DHT22;6325;49.540;8.364;2022-12-10T11:32:45;3.20;99.90
12520;DHT22;6325;49.540;8.364;2022-12-10T11:35:17;3.90;99.90
12520;DHT22;6325;49.540;8.364;2022-12-10T11:37:50;3.60;99.90
12520;DHT22;6325;49.540;8.364;2022-12-10T11:40:33;3.70;99.90
12520;DHT22;6325;49.540;8.364;2022-12-10T11:43:14;4.00;99.90
12520;DHT22;6325;49.540;8.364;2022-12-10T11:45:52;4.10;99.90
12520;DHT22;6325;49.540;8.364;2022-12-10T11:48:34;3.30;99.90
12520;DHT22;6325;49.540;8.364;2022-12-10T11:51:11;3.50;99.90
12520;DHT22;6325;49.540;8.364;2022-12-10T11:53:50;3.40;99.90
12520;DHT22;6325;49.540;8.364;2022-12-10T11:56:23;3.60;99.90
12520;DHT22;6325;49.540;8.364;2022-12-10T11:59:03;3.60;99.90
12520;DHT22;6325;49.540;8.364;2022-12-10T12:01:56;3.40;99.90
12520;DHT22;6325;49.540;8.364;2022-12-10T12:04:43;3.70;99.90
12520;DHT22;6325;49.540;8.364;2022-12-10T12:07:23;3.60;99.90
12520;DHT22;6325;49.540;8.364;2022-12-10T12:10:15;3.00;99.90
12520;DHT22;6325;49.540;8.364;2022-12-10T12:12:49;4.00;99.90
12520;DHT22;6325;49.540;8.364;2022-12-10T12:15:22;4.00;99.90
12520;DHT22;6325;49.540;8.364;2022-12-10T12:17:52;4.00;99.90
12520;DHT22;6325;49.540;8.364;2022-12-10T12:20:24;3.80;99.90
12520;DHT22;6325;49.540;8.364;2022-12-10T12:22:56;3.50;99.90
12520;DHT22;6325;49.540;8.364;2022-12-10T12:25:27;3.80;99.90
12520;DHT22;6325;49.540;8.364;2022-12-10T12:27:59;4.10;99.90
12520;DHT22;6325;49.540;8.364;2022-12-10T12:30:32;3.70;99.90
12520;DHT22;6325;49.540;8.364;2022-12-10T12:33:03;3.50;99.90
12520;DHT22;6325;49.540;8.364;2022-12-10T12:35:38;4.20;99.90
12520;DHT22;6325;49.540;8.364;2022-12-10T12:38:14;3.90;99.90
12520;DHT22;6325;49.540;8.364;2022-12-10T12:40:49;3.90;99.90
12520;DHT22;6325;49.540;8.364;2022-12-10T12:43:23;4.00;99.90
12520;DHT22;6325;49.540;8.364;2022-12-10T12:45:53;4.10;99.90
12520;DHT22;6325;49.540;8.364;2022-12-10T12:48:25;4.40;99.90
12520;DHT22;6325;49.540;8.364;2022-12-10T12:50:59;3.70;99.90
12520;DHT22;6325;49.540;8.364;2022-12-10T12:53:26;3.90;99.90
12520;DHT22;6325;49.540;8.364;2022-12-10T12:55:58;4.00;99.90
12520;DHT22;6325;49.540;8.364;2022-12-10T12:58:36;4.10;99.90
12520;DHT22;6325;49.540;8.364;2022-12-10T13:01:18;4.10;99.90
12520;DHT22;6325;49.540;8.364;2022-12-10T13:03:48;4.20;99.90
12520;DHT22;6325;49.540;8.364;2022-12-10T13:06:21;3.60;99.90
12520;DHT22;6325;49.540;8.364;2022-12-10T13:08:52;4.30;99.90
12520;DHT22;6325;49.540;8.364;2022-12-10T13:11:32;4.30;99.90
12520;DHT22;6325;49.540;8.364;2022-12-10T13:14:16;4.30;99.90
12520;DHT22;6325;49.540;8.364;2022-12-10T13:17:05;4.30;99.90
12520;DHT22;6325;49.540;8.364;2022-12-10T13:19:33;4.50;99.90
12520;DHT22;6325;49.540;8.364;2022-12-10T13:22:07;4.20;99.90
12520;DHT22;6325;49.540;8.364;2022-12-10T13:25:09;3.90;99.90
12520;DHT22;6325;49.540;8.364;2022-12-10T13:27:37;4.30;99.90
12520;DHT22;6325;49.540;8.364;2022-12-10T13:30:33;4.50;99.90
12520;DHT22;6325;49.540;8.364;2022-12-10T13:33:17;4.20;99.90
12520;DHT22;6325;49.540;8.364;2022-12-10T13:35:57;4.50;99.90
12520;DHT22;6325;49.540;8.364;2022-12-10T13:38:27;4.40;99.90
12520;DHT22;6325;49.540;8.364;2022-12-10T13:41:00;4.40;99.90
12520;DHT22;6325;49.540;8.364;2022-12-10T13:43:56;4.50;99.90
12520;DHT22;6325;49.540;8.364;2022-12-10T13:46:56;4.10;99.90
12520;DHT22;6325;49.540;8.364;2022-12-10T13:49:25;4.60;99.90
12520;DHT22;6325;49.540;8.364;2022-12-10T13:51:59;3.90;99.90
12520;DHT22;6325;49.540;8.364;2022-12-10T13:57:56;3.80;99.90
12520;DHT22;6325;49.540;8.364;2022-12-10T14:00:35;3.90;99.90
12520;DHT22;6325;49.540;8.364;2022-12-10T14:03:43;4.30;99.90
12520;DHT22;6325;49.540;8.364;2022-12-10T14:06:15;4.10;99.90
12520;DHT22;6325;49.540;8.364;2022-12-10T14:08:54;4.20;99.90
12520;DHT22;6325;49.540;8.364;2022-12-10T14:11:26;3.90;99.90
12520;DHT22;6325;49.540;8.364;2022-12-10T14:13:56;3.40;99.90
12520;DHT22;6325;49.540;8.364;2022-12-10T14:16:27;4.20;99.90
12520;DHT22;6325;49.540;8.364;2022-12-10T14:18:58;3.90;99.90
12520;DHT22;6325;49.540;8.364;2022-12-10T14:21:27;3.80;99.90
12520;DHT22;6325;49.540;8.364;2022-12-10T14:23:57;3.90;99.90
12520;DHT22;6325;49.540;8.364;2022-12-10T14:26:29;3.70;99.90
12520;DHT22;6325;49.540;8.364;2022-12-10T14:28:58;3.70;99.90
12520;DHT22;6325;49.540;8.364;2022-12-10T14:31:28;3.90;99.90
12520;DHT22;6325;49.540;8.364;2022-12-10T14:34:00;4.10;99.90
12520;DHT22;6325;49.540;8.364;2022-12-10T14:36:30;3.50;99.90
12520;DHT22;6325;49.540;8.364;2022-12-10T14:38:58;4.10;99.90
12520;DHT22;6325;49.540;8.364;2022-12-10T14:41:29;3.70;99.90
12520;DHT22;6325;49.540;8.364;2022-12-10T14:44:01;3.00;99.90
12520;DHT22;6325;49.540;8.364;2022-12-10T14:46:30;3.60;99.90
12520;DHT22;6325;49.540;8.364;2022-12-10T14:48:57;3.00;99.90
12520;DHT22;6325;49.540;8.364;2022-12-10T14:51:30;2.80;99.90
12520;DHT22;6325;49.540;8.364;2022-12-10T14:53:58;4.10;99.90
12520;DHT22;6325;49.540;8.364;2022-12-10T14:56:30;3.50;99.90
12520;DHT22;6325;49.540;8.364;2022-12-10T14:59:02;3.40;99.90
12520;DHT22;6325;49.540;8.364;2022-12-10T15:01:33;3.20;99.90
12520;DHT22;6325;49.540;8.364;2022-12-10T15:04:03;3.10;99.90
12520;DHT22;6325;49.540;8.364;2022-12-10T15:06:34;3.30;99.90
12520;DHT22;6325;49.540;8.364;2022-12-10T15:09:03;2.70;99.90
12520;DHT22;6325;49.540;8.364;2022-12-10T15:11:32;3.00;99.90
12520;DHT22;6325;49.540;8.364;2022-12-10T15:13:59;3.50;99.90
12520;DHT22;6325;49.540;8.364;2022-12-10T15:16:30;2.70;99.90
12520;DHT22;6325;49.540;8.364;2022-12-10T15:19:15;2.60;99.90
12520;DHT22;6325;49.540;8.364;2022-12-10T15:21:44;2.80;99.90
12520;DHT22;6325;49.540;8.364;2022-12-10T15:24:18;3.00;99.90
12520;DHT22;6325;49.540;8.364;2022-12-10T15:26:48;2.70;99.90
12520;DHT22;6325;49.540;8.364;2022-12-10T15:29:31;3.00;99.90
12520;DHT22;6325;49.540;8.364;2022-12-10T15:32:03;2.30;99.90
12520;DHT22;6325;49.540;8.364;2022-12-10T15:34:37;2.60;99.90
12520;DHT22;6325;49.540;8.364;2022-12-10T15:37:05;2.10;99.90
12520;DHT22;6325;49.540;8.364;2022-12-10T15:39:46;3.10;99.90
12520;DHT22;6325;49.540;8.364;2022-12-10T15:42:31;2.70;99.90
12520;DHT22;6325;49.540;8.364;2022-12-10T15:45:03;1.70;99.90
12520;DHT22;6325;49.540;8.364;2022-12-10T15:47:31;2.00;99.90
12520;DHT22;6325;49.540;8.364;2022-12-10T15:50:04;1.80;99.90
12520;DHT22;6325;49.540;8.364;2022-12-10T15:52:31;2.60;99.90
12520;DHT22;6325;49.540;8.364;2022-12-10T15:54:58;1.90;99.90
12520;DHT22;6325;49.540;8.364;2022-12-10T15:57:31;2.50;99.90
12520;DHT22;6325;49.540;8.364;2022-12-10T16:00:00;1.70;99.90
12520;DHT22;6325;49.540;8.364;2022-12-10T16:02:37;2.10;99.90
12520;DHT22;6325;49.540;8.364;2022-12-10T16:05:11;2.30;99.90
12520;DHT22;6325;49.540;8.364;2022-12-10T16:07:39;2.10;99.90
12520;DHT22;6325;49.540;8.364;2022-12-10T16:10:07;2.80;99.90
12520;DHT22;6325;49.540;8.364;2022-12-10T16:12:36;2.00;99.90
12520;DHT22;6325;49.540;8.364;2022-12-10T16:15:05;1.30;99.90
12520;DHT22;6325;49.540;8.364;2022-12-10T16:17:32;2.10;99.90
12520;DHT22;6325;49.540;8.364;2022-12-10T16:20:00;1.60;99.90
12520;DHT22;6325;49.540;8.364;2022-12-10T16:22:36;1.70;99.90
12520;DHT22;6325;49.540;8.364;2022-12-10T16:25:03;2.00;99.90
12520;DHT22;6325;49.540;8.364;2022-12-10T16:27:30;2.00;99.90
12520;DHT22;6325;49.540;8.364;2022-12-10T16:29:59;1.90;99.90
12520;DHT22;6325;49.540;8.364;2022-12-10T16:32:26;1.70;99.90
12520;DHT22;6325;49.540;8.364;2022-12-10T16:34:53;1.70;99.90